createdAt,value
2022-11-01T00:01:29.447Z,1.60
2022-11-01T00:04:31.123Z,1.38
2022-11-01T00:07:32.656Z,3.60
2022-11-01T00:10:34.173Z,1.45
2022-11-01T00:13:35.754Z,2.33
2022-11-01T00:16:37.254Z,2.42
2022-11-01T00:19:38.793Z,1.95
2022-11-01T00:22:40.343Z,2.35
2022-11-01T00:25:41.910Z,1.48
2022-11-01T00:28:43.720Z,2.28
2022-11-01T00:31:45.247Z,2.05
2022-11-01T00:34:46.815Z,2.72
2022-11-01T00:37:48.393Z,2.38
2022-11-01T00:40:49.943Z,1.67
2022-11-01T00:43:51.502Z,1.40
2022-11-01T00:46:53.121Z,1.63
2022-11-01T00:49:54.660Z,2.08
2022-11-01T00:52:56.188Z,1.40
2022-11-01T00:56:02.186Z,2.10
2022-11-01T00:59:04.050Z,2.20
2022-11-01T01:02:05.723Z,2.10
2022-11-01T01:05:08.683Z,2.28
2022-11-01T01:08:10.277Z,3.05
2022-11-01T01:11:11.835Z,2.13
2022-11-01T01:14:13.379Z,2.45
2022-11-01T01:17:15.226Z,1.42
2022-11-01T01:20:16.860Z,1.25
2022-11-01T01:23:18.471Z,0.68
2022-11-01T01:26:20.758Z,1.55
2022-11-01T01:29:22.363Z,2.00
2022-11-01T01:32:24.343Z,1.60
2022-11-01T01:35:25.866Z,1.73
2022-11-01T01:38:27.662Z,1.90
2022-11-01T01:41:47.498Z,2.25
2022-11-01T01:44:50.233Z,2.20
2022-11-01T01:47:54.420Z,1.60
2022-11-01T01:51:05.107Z,1.13
2022-11-01T01:54:06.719Z,1.52
2022-11-01T01:57:09.209Z,1.33
2022-11-01T02:00:11.600Z,1.48
2022-11-01T02:03:14.635Z,1.40
2022-11-01T02:06:18.788Z,1.10
2022-11-01T02:09:21.053Z,0.73
2022-11-01T02:12:30.311Z,1.98
2022-11-01T02:15:43.174Z,2.15
2022-11-01T02:19:07.323Z,2.22
2022-11-01T02:22:39.592Z,2.40
2022-11-01T02:25:56.194Z,2.45
2022-11-01T02:29:05.740Z,2.15
2022-11-01T02:32:21.752Z,1.35
2022-11-01T02:35:41.838Z,1.02
2022-11-01T02:38:57.629Z,1.80
2022-11-01T02:42:06.367Z,2.13
2022-11-01T02:45:28.955Z,1.63
2022-11-01T02:48:30.629Z,2.53
2022-11-01T02:51:33.398Z,1.20
2022-11-01T02:54:45.512Z,1.50
2022-11-01T02:57:47.845Z,1.30
2022-11-01T03:00:49.682Z,1.20
2022-11-01T03:03:53.812Z,1.23
2022-11-01T03:07:01.352Z,1.55
2022-11-01T03:10:03.204Z,1.77
2022-11-01T03:13:29.225Z,2.28
2022-11-01T03:16:51.034Z,2.10
2022-11-01T03:20:01.629Z,2.90
2022-11-01T03:23:05.684Z,2.53
2022-11-01T03:26:12.567Z,1.67
2022-11-01T03:29:16.370Z,1.35
2022-11-01T03:32:19.754Z,1.95
2022-11-01T03:35:39.653Z,1.73
2022-11-01T03:38:48.937Z,2.08
2022-11-01T03:41:56.788Z,1.55
2022-11-01T03:45:03.243Z,1.73
2022-11-01T03:48:05.997Z,1.83
2022-11-01T03:51:07.931Z,2.40
2022-11-01T03:54:11.200Z,0.88
2022-11-01T03:57:12.878Z,2.33
2022-11-01T04:00:17.090Z,1.17
2022-11-01T04:03:18.675Z,0.85
2022-11-01T04:06:20.216Z,2.13
2022-11-01T04:09:21.759Z,1.90
2022-11-01T04:12:23.412Z,0.80
2022-11-01T04:15:44.588Z,0.90
2022-11-01T04:19:04.799Z,1.30
2022-11-01T04:22:06.339Z,0.77
2022-11-01T04:25:08.135Z,1.48
2022-11-01T04:28:09.658Z,1.33
2022-11-01T04:31:12.021Z,0.63
2022-11-01T04:34:13.559Z,0.82
2022-11-01T04:37:15.092Z,0.65
2022-11-01T04:40:16.847Z,0.68
2022-11-01T04:43:18.410Z,0.98
2022-11-01T04:46:20.275Z,0.75
2022-11-01T04:49:21.881Z,0.40
2022-11-01T04:52:23.640Z,0.40
2022-11-01T04:55:25.976Z,0.47
2022-11-01T04:58:27.555Z,0.55
2022-11-01T05:01:29.255Z,0.50
2022-11-01T05:04:30.815Z,0.50
2022-11-01T05:07:32.379Z,1.17
2022-11-01T05:10:35.617Z,0.55
2022-11-01T05:13:37.112Z,0.60
2022-11-01T05:16:38.647Z,0.68
2022-11-01T05:19:40.264Z,1.23
2022-11-01T05:22:41.794Z,0.40
2022-11-01T05:25:43.667Z,0.50
2022-11-01T05:28:45.194Z,0.40
2022-11-01T05:31:47.123Z,0.80
2022-11-01T05:34:49.922Z,0.40
2022-11-01T05:37:51.608Z,0.75
2022-11-01T05:40:53.119Z,0.65
2022-11-01T05:43:54.657Z,0.60
2022-11-01T05:46:56.267Z,1.70
2022-11-01T05:49:57.783Z,0.93
2022-11-01T05:53:10.267Z,0.50
2022-11-01T05:56:12.103Z,0.80
2022-11-01T05:59:13.671Z,0.45
2022-11-01T06:02:15.262Z,0.68
2022-11-01T06:05:16.982Z,0.40
2022-11-01T06:08:19.935Z,1.08
2022-11-01T06:11:21.588Z,0.50
2022-11-01T06:14:23.291Z,0.38
2022-11-01T06:17:25.060Z,0.60
2022-11-01T06:20:31.672Z,0.40
2022-11-01T06:23:33.186Z,0.73
2022-11-01T06:26:34.762Z,0.40
2022-11-01T06:29:36.270Z,0.20
2022-11-01T06:32:37.888Z,0.35
2022-11-01T06:35:39.480Z,0.52
2022-11-01T06:38:41.028Z,0.88
2022-11-01T06:41:42.594Z,0.50
2022-11-01T06:44:44.093Z,0.20
2022-11-01T06:47:48.733Z,0.30
2022-11-01T06:50:50.562Z,0.40
2022-11-01T06:53:52.076Z,0.30
2022-11-01T06:56:53.566Z,0.50
2022-11-01T06:59:55.140Z,0.40
2022-11-01T07:03:02.288Z,0.55
2022-11-01T07:06:04.046Z,0.22
2022-11-01T07:09:05.705Z,0.30
2022-11-01T07:12:07.264Z,0.30
2022-11-01T07:15:09.071Z,0.30
2022-11-01T07:18:11.028Z,0.30
2022-11-01T07:21:12.679Z,0.22
2022-11-01T07:24:14.270Z,0.30
2022-11-01T07:27:20.243Z,0.32
2022-11-01T07:30:22.716Z,0.32
2022-11-01T07:33:24.355Z,0.30
2022-11-01T07:36:25.907Z,0.50
2022-11-01T07:39:27.436Z,0.20
2022-11-01T07:42:29.488Z,0.25
2022-11-01T07:45:33.530Z,0.20
2022-11-01T07:48:36.964Z,0.57
2022-11-01T07:51:38.714Z,0.20
2022-11-01T07:54:40.394Z,0.50
2022-11-01T07:57:41.987Z,0.20
2022-11-01T08:00:44.537Z,0.20
2022-11-01T08:03:46.270Z,0.20
2022-11-01T08:06:49.785Z,0.98
2022-11-01T08:09:53.678Z,0.10
2022-11-01T08:13:21.058Z,0.20
2022-11-01T08:16:22.584Z,0.50
2022-11-01T08:19:24.135Z,0.22
2022-11-01T08:22:25.722Z,0.20
2022-11-01T08:25:27.271Z,0.15
2022-11-01T08:28:30.436Z,0.20
2022-11-01T08:31:32.019Z,0.47
2022-11-01T08:34:33.742Z,0.10
2022-11-01T08:37:35.344Z,0.10
2022-11-01T08:40:36.862Z,0.20
2022-11-01T08:43:40.579Z,0.20
2022-11-01T08:46:43.709Z,0.20
2022-11-01T08:49:45.774Z,0.25
2022-11-01T08:52:47.334Z,0.10
2022-11-01T08:55:54.693Z,0.10
2022-11-01T08:58:56.724Z,0.13
2022-11-01T09:01:58.360Z,0.20
2022-11-01T09:05:02.818Z,0.60
2022-11-01T09:08:04.899Z,0.20
2022-11-01T09:11:06.862Z,0.10
2022-11-01T09:14:09.185Z,0.20
2022-11-01T09:17:10.750Z,0.10
2022-11-01T09:20:12.513Z,0.10
2022-11-01T09:23:14.035Z,0.10
2022-11-01T09:26:15.708Z,0.10
2022-11-01T09:29:18.992Z,0.55
2022-11-01T09:32:21.282Z,0.10
2022-11-01T09:35:22.880Z,0.10
2022-11-01T09:38:24.568Z,0.10
2022-11-01T09:41:47.241Z,0.10
2022-11-01T09:44:53.894Z,0.10
2022-11-01T09:47:57.738Z,0.25
2022-11-01T09:51:03.019Z,0.47
2022-11-01T09:54:04.720Z,0.13
2022-11-01T09:57:17.009Z,0.25
2022-11-01T10:00:20.766Z,0.35
2022-11-01T10:03:33.687Z,0.10
2022-11-01T10:06:42.042Z,0.15
2022-11-01T10:10:02.071Z,0.10
2022-11-01T10:13:25.695Z,0.10
2022-11-01T10:16:49.322Z,0.20
2022-11-01T10:19:51.003Z,0.10
2022-11-01T10:22:52.722Z,0.20
2022-11-01T10:25:54.926Z,0.43
2022-11-01T10:29:13.807Z,0.22
2022-11-01T10:32:38.186Z,0.30
2022-11-01T10:35:45.830Z,0.38
2022-11-01T10:42:17.399Z,0.30
2022-11-01T10:45:20.704Z,0.68
2022-11-01T10:48:44.033Z,0.10
2022-11-01T10:51:47.395Z,0.77
2022-11-01T10:54:50.508Z,0.30
2022-11-01T10:57:57.674Z,0.38
2022-11-01T11:01:02.735Z,0.00
2022-11-01T11:04:07.767Z,0.43
2022-11-01T11:07:16.498Z,0.10
2022-11-01T11:10:24.914Z,0.20
2022-11-01T11:13:27.547Z,0.20
2022-11-01T11:16:35.351Z,0.50
2022-11-01T11:19:39.820Z,0.30
2022-11-01T11:22:43.205Z,0.10
2022-11-01T11:25:45.701Z,0.10
2022-11-01T11:28:51.778Z,0.20
2022-11-01T11:31:59.231Z,0.17
2022-11-01T11:35:17.728Z,0.75
2022-11-01T11:38:39.079Z,0.10
2022-11-01T11:41:41.967Z,0.13
2022-11-01T11:44:50.486Z,0.10
2022-11-01T11:47:57.056Z,0.10
2022-11-01T11:51:06.334Z,0.20
2022-11-01T11:54:23.058Z,0.22
2022-11-01T11:57:27.216Z,0.10
2022-11-01T12:00:29.863Z,0.20
2022-11-01T12:03:44.468Z,0.40
2022-11-01T12:06:46.958Z,0.25
2022-11-01T12:09:48.815Z,0.17
2022-11-01T12:12:52.954Z,1.42
2022-11-01T12:16:06.374Z,0.98
2022-11-01T12:19:31.099Z,0.10
2022-11-01T12:22:35.067Z,0.17
2022-11-01T12:25:38.177Z,0.10
2022-11-01T12:28:44.917Z,0.43
2022-11-01T12:31:48.411Z,0.15
2022-11-01T12:34:52.739Z,1.17
2022-11-01T12:38:04.954Z,0.20
2022-11-01T12:41:29.751Z,1.00
2022-11-01T12:44:47.084Z,0.20
2022-11-01T12:47:54.647Z,0.10
2022-11-01T12:51:02.845Z,0.10
2022-11-01T12:54:16.453Z,0.30
2022-11-01T12:57:19.088Z,0.10
2022-11-01T13:00:21.868Z,0.30
2022-11-01T13:03:46.593Z,0.10
2022-11-01T13:07:12.765Z,0.80
2022-11-01T13:10:33.361Z,0.38
2022-11-01T13:14:02.348Z,0.10
2022-11-01T13:17:25.336Z,0.15
2022-11-01T13:20:32.630Z,0.10
2022-11-01T13:24:02.035Z,0.10
2022-11-01T13:27:15.449Z,0.10
2022-11-01T13:30:20.686Z,0.55
2022-11-01T13:33:37.410Z,0.10
2022-11-01T13:36:41.786Z,0.30
2022-11-01T13:39:51.583Z,0.52
2022-11-01T13:43:02.863Z,0.30
2022-11-01T13:46:21.031Z,0.10
2022-11-01T13:49:41.475Z,0.10
2022-11-01T13:52:51.270Z,0.10
2022-11-01T13:56:09.330Z,0.10
2022-11-01T13:59:15.656Z,0.10
2022-11-01T14:02:23.036Z,0.10
2022-11-01T14:05:39.182Z,0.10
2022-11-01T14:08:42.955Z,0.20
2022-11-01T14:11:49.311Z,0.32
2022-11-01T14:14:52.422Z,0.00
2022-11-01T14:17:57.271Z,0.10
2022-11-01T14:21:18.771Z,0.10
2022-11-01T14:24:30.594Z,0.10
2022-11-01T14:27:37.093Z,0.32
2022-11-01T14:30:42.334Z,0.10
2022-11-01T14:33:48.391Z,0.10
2022-11-01T14:36:54.107Z,0.20
2022-11-01T14:40:00.588Z,0.10
2022-11-01T14:43:25.208Z,0.10
2022-11-01T14:46:29.580Z,0.25
2022-11-01T14:49:41.507Z,0.10
2022-11-01T14:52:50.987Z,0.10
2022-11-01T14:56:05.677Z,0.10
2022-11-01T14:59:20.147Z,0.10
2022-11-01T15:02:23.767Z,0.10
2022-11-01T15:05:25.903Z,0.10
2022-11-01T15:08:41.565Z,0.10
2022-11-01T15:11:43.107Z,0.10
2022-11-01T15:14:46.556Z,0.10
2022-11-01T15:17:55.498Z,0.10
2022-11-01T15:20:59.243Z,0.10
2022-11-01T15:24:03.029Z,0.10
2022-11-01T15:27:14.213Z,0.10
2022-11-01T15:30:36.793Z,0.10
2022-11-01T15:33:38.783Z,0.10
2022-11-01T15:36:40.367Z,0.10
2022-11-01T15:39:41.922Z,0.10
2022-11-01T15:42:48.975Z,0.10
2022-11-01T15:45:56.618Z,0.10
2022-11-01T15:49:04.045Z,0.10
2022-11-01T15:52:15.652Z,0.10
2022-11-01T15:55:33.717Z,0.10
2022-11-01T16:02:11.543Z,0.10
2022-11-01T16:05:18.592Z,0.10
2022-11-01T16:08:42.898Z,0.15
2022-11-01T16:11:46.663Z,0.10
2022-11-01T16:14:58.749Z,0.10
2022-11-01T16:18:04.208Z,0.10
2022-11-01T16:21:30.100Z,0.00
2022-11-01T16:24:32.310Z,0.10
2022-11-01T16:27:35.987Z,0.13
2022-11-01T16:30:49.298Z,0.10
2022-11-01T16:33:51.546Z,0.15
2022-11-01T16:36:53.130Z,0.10
2022-11-01T16:39:54.822Z,0.10
2022-11-01T16:42:59.079Z,0.10
2022-11-01T16:46:01.451Z,0.10
2022-11-01T16:49:19.084Z,0.10
2022-11-01T16:52:21.908Z,0.10
2022-11-01T16:55:27.166Z,0.10
2022-11-01T16:58:30.998Z,0.28
2022-11-01T17:01:35.567Z,0.10
2022-11-01T17:04:40.022Z,0.30
2022-11-01T17:07:41.684Z,0.10
2022-11-01T17:10:43.287Z,0.15
2022-11-01T17:13:44.877Z,0.32
2022-11-01T17:16:48.100Z,0.10
2022-11-01T17:19:58.389Z,0.10
2022-11-01T17:23:00.051Z,0.10
2022-11-01T17:26:03.769Z,0.10
2022-11-01T17:29:05.308Z,0.10
2022-11-01T17:32:11.155Z,0.25
2022-11-01T17:35:13.034Z,0.10
2022-11-01T17:38:30.343Z,0.10
2022-11-01T17:41:32.148Z,0.10
2022-11-01T17:44:33.669Z,0.10
2022-11-01T17:47:35.212Z,0.10
2022-11-01T17:50:37.579Z,0.10
2022-11-01T17:53:40.493Z,0.10
2022-11-01T17:56:42.084Z,0.35
2022-11-01T17:59:43.674Z,0.20
2022-11-01T18:02:45.438Z,0.10
2022-11-01T18:05:47.040Z,0.10
2022-11-01T18:08:51.143Z,0.25
2022-11-01T18:12:04.628Z,0.10
2022-11-01T18:15:09.248Z,0.10
2022-11-01T18:18:22.999Z,0.10
2022-11-01T18:21:43.320Z,0.10
2022-11-01T18:25:11.106Z,0.10
2022-11-01T18:28:17.085Z,0.22
2022-11-01T18:31:44.868Z,0.10
2022-11-01T18:38:53.362Z,0.10
2022-11-01T18:41:55.131Z,0.10
2022-11-01T18:44:59.763Z,0.10
2022-11-01T18:48:08.333Z,0.10
2022-11-01T18:51:28.410Z,0.10
2022-11-01T18:54:32.583Z,0.10
2022-11-01T18:57:35.063Z,0.20
2022-11-01T19:00:37.814Z,0.15
2022-11-01T19:03:40.304Z,0.22
2022-11-01T19:06:41.834Z,0.10
2022-11-01T19:09:55.397Z,0.10
2022-11-01T19:12:57.081Z,0.10
2022-11-01T19:16:01.993Z,0.10
2022-11-01T19:19:18.237Z,0.10
2022-11-01T19:22:33.457Z,0.10
2022-11-01T19:25:36.689Z,1.00
2022-11-01T19:28:40.471Z,0.10
2022-11-01T19:31:45.073Z,0.10
2022-11-01T19:34:48.699Z,0.15
2022-11-01T19:37:55.338Z,0.38
2022-11-01T19:40:58.523Z,0.13
2022-11-01T19:44:05.219Z,0.32
2022-11-01T19:47:21.995Z,0.10
2022-11-01T19:50:44.628Z,0.10
2022-11-01T19:53:46.490Z,0.20
2022-11-01T19:56:48.031Z,0.10
2022-11-01T19:59:49.682Z,1.00
2022-11-01T20:02:57.471Z,0.17
2022-11-01T20:05:59.033Z,0.10
2022-11-01T20:09:26.698Z,0.32
2022-11-01T20:12:28.255Z,0.47
2022-11-01T20:15:29.981Z,0.52
2022-11-01T20:18:31.552Z,0.10
2022-11-01T20:21:33.387Z,0.10
2022-11-01T20:24:34.893Z,0.10
2022-11-01T20:27:36.451Z,0.10
2022-11-01T20:30:37.999Z,0.10
2022-11-01T20:33:39.630Z,0.10
2022-11-01T20:36:41.279Z,0.10
2022-11-01T20:39:42.859Z,0.28
2022-11-01T20:42:44.484Z,0.20
2022-11-01T20:45:46.065Z,0.20
2022-11-01T20:48:48.289Z,0.10
2022-11-01T20:51:49.826Z,0.10
2022-11-01T20:54:51.937Z,0.17
2022-11-01T20:57:53.702Z,0.10
2022-11-01T21:00:55.994Z,0.10
2022-11-01T21:03:57.858Z,0.10
2022-11-01T21:06:59.404Z,0.20
2022-11-01T21:10:01.012Z,0.10
2022-11-01T21:13:07.432Z,0.10
2022-11-01T21:16:20.763Z,0.10
2022-11-01T21:19:25.587Z,0.20
2022-11-01T21:22:27.440Z,0.10
2022-11-01T21:25:29.159Z,0.10
2022-11-01T21:28:34.237Z,0.10
2022-11-01T21:31:39.087Z,0.10
2022-11-01T21:34:43.171Z,0.20
2022-11-01T21:37:44.695Z,0.75
2022-11-01T21:40:46.262Z,0.10
2022-11-01T21:43:47.782Z,0.20
2022-11-01T21:46:54.151Z,0.20
2022-11-01T21:49:56.127Z,0.10
2022-11-01T21:52:57.779Z,0.10
2022-11-01T21:55:59.336Z,0.10
2022-11-01T21:59:00.866Z,0.10
2022-11-01T22:02:03.590Z,0.47
2022-11-01T22:05:05.568Z,0.10
2022-11-01T22:08:07.117Z,0.32
2022-11-01T22:11:08.640Z,0.20
2022-11-01T22:14:11.250Z,0.10
2022-11-01T22:17:12.763Z,0.22
2022-11-01T22:20:14.945Z,0.10
2022-11-01T22:23:16.523Z,0.20
2022-11-01T22:26:18.247Z,0.15
2022-11-01T22:29:19.800Z,0.17
2022-11-01T22:32:21.371Z,0.20
2022-11-01T22:35:22.917Z,0.10
2022-11-01T22:38:29.079Z,0.38
2022-11-01T22:41:35.092Z,0.10
2022-11-01T22:44:37.825Z,0.40
2022-11-01T22:47:39.532Z,0.40
2022-11-01T22:50:41.085Z,0.10
2022-11-01T22:53:42.688Z,0.17
2022-11-01T22:56:44.686Z,0.52
2022-11-01T22:59:51.239Z,0.10
2022-11-01T23:02:59.765Z,0.10
2022-11-01T23:06:15.467Z,0.10
2022-11-01T23:09:19.906Z,0.10
2022-11-01T23:12:42.832Z,0.10
2022-11-01T23:15:44.824Z,0.10
2022-11-01T23:18:46.392Z,0.30
2022-11-01T23:21:48.326Z,0.20
2022-11-01T23:24:52.026Z,0.10
2022-11-01T23:27:54.296Z,0.10
2022-11-01T23:30:57.282Z,0.10
2022-11-01T23:33:58.807Z,0.10
2022-11-01T23:37:00.462Z,0.20
2022-11-01T23:40:02.390Z,0.10
2022-11-01T23:43:24.184Z,0.20
2022-11-01T23:46:26.694Z,0.10
2022-11-01T23:49:31.802Z,0.00
2022-11-01T23:52:40.302Z,0.17
2022-11-01T23:55:48.536Z,0.20
2022-11-01T23:58:55.891Z,0.10
